createdAt,value
2022-09-01T00:04:18.534Z,65.19832009129642
2022-09-01T00:10:39.163Z,65.60958464026682
2022-09-01T00:17:00.324Z,65.97847474853265
2022-09-01T00:23:27.145Z,66.1913441103316
2022-09-01T00:29:48.153Z,66.26038056026364
2022-09-01T00:36:51.688Z,66.38384376989497
2022-09-01T00:43:13.213Z,66.5287246970333
2022-09-01T00:49:35.275Z,66.82879287268145
2022-09-01T00:59:45.072Z,66.90448090843826
2022-09-01T01:06:06.274Z,67.1142771250847
2022-09-01T01:12:27.930Z,66.88539793055033
2022-09-01T01:18:49.294Z,67.32661416098948
2022-09-01T01:25:19.603Z,67.27886047775986
2022-09-01T01:38:17.538Z,67.73511773134416
2022-09-01T01:44:39.000Z,68.03807589141633
2022-09-01T01:51:38.688Z,68.17328568326421
2022-09-01T01:58:00.576Z,68.24118166154805
2022-09-01T02:05:41.062Z,68.55443429825387
2022-09-01T02:12:27.116Z,68.70259560463204
2022-09-01T02:25:07.467Z,68.88956438136252
2022-09-01T02:31:28.402Z,69.19894377163538
2022-09-01T02:37:49.797Z,69.3686354394919
2022-09-01T02:44:11.140Z,70.03769765236486
2022-09-01T02:50:32.090Z,70.35553670427092
2022-09-01T02:56:53.335Z,70.57903961180426
2022-09-01T03:03:14.882Z,70.86062203538344
2022-09-01T03:09:35.982Z,71.29156455417241
2022-09-01T03:15:57.574Z,71.41014261811884
2022-09-01T03:22:18.227Z,72.03493011991017
2022-09-01T03:28:45.162Z,72.22742934159352
2022-09-01T03:35:06.550Z,72.69358573370597
2022-09-01T03:41:27.706Z,72.70908390161966
2022-09-01T03:47:48.772Z,72.92258287741043
2022-09-01T04:04:46.097Z,74.22320321904064
2022-09-01T04:11:07.178Z,74.18067628320921
2022-09-01T04:17:30.629Z,74.35299157329186
2022-09-01T04:23:58.206Z,74.60222622681597
2022-09-01T04:30:22.621Z,75.33210255831226
2022-09-01T04:36:44.979Z,75.50533268423477
2022-09-01T04:43:07.794Z,75.77763288302307
2022-09-01T04:50:12.882Z,75.87332078480995
2022-09-01T04:57:43.669Z,76.24074722940144
2022-09-01T05:04:07.802Z,76.56364983012112
2022-09-01T05:10:29.844Z,77.13579474044572
2022-09-01T05:18:31.273Z,77.91659428520818
2022-09-01T05:27:41.810Z,77.44547784398753
2022-09-01T05:40:12.470Z,77.63134379119413
2022-09-01T05:48:23.771Z,77.87661082388911
2022-09-01T05:54:45.507Z,78.19540624632769
2022-09-01T06:01:07.834Z,78.31430666939902
2022-09-01T06:07:29.813Z,78.65247814665298
2022-09-01T06:13:55.249Z,78.76890013313987
2022-09-01T06:20:17.193Z,78.63836498540071
2022-09-01T06:26:39.704Z,78.53668791751815
2022-09-01T06:33:01.849Z,78.26364771606455
2022-09-01T06:39:23.435Z,77.31668087430296
2022-09-01T06:45:45.596Z,76.18601774313889
2022-09-01T06:52:08.571Z,75.37412897449263
2022-09-01T06:58:29.914Z,74.43750497493845
2022-09-01T07:04:51.242Z,73.66903771608
2022-09-01T07:11:23.028Z,72.74421911749639
2022-09-01T07:18:28.925Z,71.5578276978843
2022-09-01T07:25:35.116Z,70.48357662655405
2022-09-01T07:34:46.418Z,67.77594844629215
2022-09-01T07:48:01.246Z,64.41943404823961
2022-09-01T07:54:29.989Z,62.081355685768855
2022-09-01T08:04:53.776Z,58.97677830840992
2022-09-01T08:11:15.734Z,57.38919877673634
2022-09-01T08:17:51.177Z,56.494383611799954
2022-09-01T08:24:20.959Z,55.33249529960302
2022-09-01T08:33:44.694Z,54.08302756781088
2022-09-01T08:44:53.685Z,45.7419407792525
2022-09-01T08:51:17.262Z,47.28986533516748
2022-09-01T09:03:18.189Z,47.77432874718329
2022-09-01T09:11:55.940Z,45.76418818051798
2022-09-01T09:18:39.243Z,46.641074026985166
2022-09-01T09:27:32.322Z,46.015341794783126
2022-09-01T09:33:55.046Z,44.64237414569056
2022-09-01T09:44:22.864Z,44.978337638247794
2022-09-01T09:50:45.227Z,44.15759328888798
2022-09-01T09:57:07.948Z,44.34305403476944
2022-09-01T10:03:29.610Z,44.58033508081615
2022-09-01T10:09:51.621Z,44.51845091286303
2022-09-01T10:16:13.433Z,44.387100159038276
2022-09-01T10:22:48.381Z,44.68580407669732
2022-09-01T10:29:11.985Z,44.50749450501185
2022-09-01T10:35:39.791Z,43.140805571752
2022-09-01T10:42:02.419Z,42.78050550046392
2022-09-01T10:48:31.128Z,43.46420521517009
2022-09-01T10:54:55.821Z,42.494572277094534
2022-09-01T11:01:46.646Z,41.67944788645586
2022-09-01T11:23:13.458Z,41.11002683471611
2022-09-01T11:29:36.464Z,42.49924151098011
2022-09-01T11:35:57.942Z,40.30125489420583
2022-09-01T11:42:20.849Z,40.30600679453454
2022-09-01T11:48:43.882Z,39.86315123134104
2022-09-01T11:55:06.074Z,41.10090265672487
2022-09-01T12:01:27.972Z,39.785154356088036
2022-09-01T12:07:50.488Z,39.99941171572137
2022-09-01T12:14:13.565Z,40.351992383639676
2022-09-01T12:20:35.031Z,39.85036918082941
2022-09-01T12:27:04.041Z,38.01881413503419
2022-09-01T12:33:26.094Z,38.316710472234014
2022-09-01T12:39:48.221Z,38.284781801312946
2022-09-01T12:46:23.855Z,37.590048560517985
2022-09-01T12:52:46.076Z,38.38137493957007
2022-09-01T12:59:14.138Z,38.03450874063628
2022-09-01T13:05:42.201Z,38.06712030055937
2022-09-01T13:12:06.219Z,38.02701588181557
2022-09-01T13:24:52.418Z,38.4399532595314
2022-09-01T13:36:42.889Z,39.96830650991555
2022-09-01T13:43:06.343Z,40.94608193952088
2022-09-01T13:50:05.314Z,40.12496566730117
2022-09-01T13:56:29.509Z,39.55933738789516
2022-09-01T14:02:51.123Z,39.44045023808985
2022-09-01T14:09:16.979Z,39.6011541134561
2022-09-01T14:15:40.885Z,39.26431255209029
2022-09-01T14:22:02.802Z,39.190279739975836
2022-09-01T14:28:30.233Z,38.70516155039937
2022-09-01T14:34:51.628Z,38.69838335784024
2022-09-01T14:47:24.177Z,37.68809547686816
2022-09-01T14:53:48.690Z,37.73887298426228
2022-09-01T15:09:43.146Z,37.253445671242716
2022-09-01T15:24:25.270Z,37.628055446287235
2022-09-01T15:30:46.676Z,38.32829970232966
2022-09-01T15:37:08.524Z,37.611790849955845
2022-09-01T15:43:30.099Z,37.52570848471372
2022-09-01T15:49:51.910Z,37.05503294877485
2022-09-01T15:56:13.571Z,37.54964944997294
2022-09-01T16:02:39.274Z,37.866131230850264
2022-09-01T16:09:01.996Z,38.05960188410651
2022-09-01T16:15:23.820Z,38.65166874365239
2022-09-01T16:24:07.875Z,38.96062030420418
2022-09-01T16:30:30.467Z,38.31781527477618
2022-09-01T16:37:45.752Z,38.810976758978654
2022-09-01T16:44:07.118Z,39.00652073920538
2022-09-01T16:50:27.890Z,39.012742404599784
2022-09-01T16:56:48.768Z,39.23387857592365
2022-09-01T17:03:09.826Z,39.60760686729098
2022-09-01T17:13:15.110Z,38.76514217688327
2022-09-01T17:19:35.965Z,39.146434682829295
2022-09-01T17:26:03.354Z,39.216943735097615
2022-09-01T17:36:52.438Z,39.62657628047528
2022-09-01T17:43:27.710Z,39.86239438953445
2022-09-01T17:49:52.549Z,40.5215169108921
2022-09-01T17:56:19.977Z,41.41285459114768
2022-09-01T18:02:44.293Z,41.88794753403483
2022-09-01T18:10:33.019Z,42.60204981665885
2022-09-01T18:16:55.591Z,43.1488972990386
2022-09-01T18:23:18.974Z,43.34352643588271
2022-09-01T18:29:51.262Z,43.79640153726887
2022-09-01T18:36:12.604Z,44.64878266584241
2022-09-01T18:42:34.357Z,45.19689668997692
2022-09-01T18:48:56.516Z,45.687547657543504
2022-09-01T19:06:12.287Z,47.393415589533674
2022-09-01T19:12:34.213Z,47.75555991964776
2022-09-01T19:18:56.579Z,48.33131512142495
2022-09-01T19:27:19.269Z,49.083089286624485
2022-09-01T19:38:01.538Z,50.411270240885564
2022-09-01T19:44:24.183Z,50.80808470808006
2022-09-01T19:50:47.070Z,51.31738657138485
2022-09-01T19:57:09.331Z,51.86905247733289
2022-09-01T20:08:17.984Z,52.54468318672889
2022-09-01T20:14:42.029Z,52.91523760155713
2022-09-01T20:21:05.228Z,53.607499095569224
2022-09-01T20:27:30.957Z,54.09201413173691
2022-09-01T20:33:52.069Z,54.56999803209806
2022-09-01T20:43:06.013Z,54.80459839143788
2022-09-01T20:49:25.973Z,55.16656025575611
2022-09-01T20:56:37.413Z,55.051447934318205
2022-09-01T21:02:58.445Z,55.320206964112785
2022-09-01T21:13:36.413Z,55.580733979469635
2022-09-01T21:19:59.906Z,55.822616415178445
2022-09-01T21:26:48.293Z,56.04290856270838
2022-09-01T21:33:28.810Z,56.4421587227705
2022-09-01T21:44:48.002Z,56.70793904916899
2022-09-01T21:51:20.156Z,56.93600482646377
2022-09-01T21:57:42.433Z,57.38984865926887
2022-09-01T22:04:03.932Z,57.55065653683252
2022-09-01T22:10:25.570Z,57.81746906428205
2022-09-01T22:16:46.268Z,58.036063983740725
2022-09-01T22:23:13.827Z,58.36098981116766
2022-09-01T22:29:34.686Z,58.478965253583326
2022-09-01T22:35:54.673Z,58.668715536390096
2022-09-01T22:42:16.651Z,58.975716970326566
2022-09-01T22:51:37.127Z,59.68494596088169
2022-09-01T22:57:58.291Z,59.83449208668931
2022-09-01T23:05:06.138Z,60.31923812937298
2022-09-01T23:11:26.956Z,60.725582255095524
2022-09-01T23:21:39.025Z,60.9447464895554
2022-09-01T23:28:05.616Z,61.11503209900725
2022-09-01T23:34:26.518Z,61.51296590647199
2022-09-01T23:40:47.923Z,61.96217410653279
2022-09-01T23:47:08.766Z,62.34925773918231
2022-09-01T23:53:29.189Z,62.48211287513101
